Terminal Aerodrome Forecast
Issued by NWS Twin Cities, MN

Home | Current Version | Previous Version | Graphics & Text | Print | Product List | Glossary On
Versions: 1 2 3 4 5 6 7 8 9 10 11 12 13 14
357
FTUS43 KMPX 221135
TAFEAU
TAF
KEAU 221135Z 2212/2312 26009KT P6SM BKN090 OVC250
     FM221900 28010G16KT P6SM SCT200
     FM222300 19006KT P6SM BKN150=

USA.gov is the U.S. government's official web portal to all federal, state and local government web resources and services.